sensor_id;sensor_type;location;lat;lon;timestamp;pressure;altitude;pressure_sealevel;temperature;humidity
32789;BME280;19141;48.980;8.410;2023-04-26T04:22:32;100385.88;;;2.82;100.00
32789;BME280;19141;48.980;8.410;2023-04-26T04:24:58;100382.50;;;2.80;100.00
32789;BME280;19141;48.980;8.410;2023-04-26T04:27:27;100384.22;;;2.81;100.00
32789;BME280;19141;48.980;8.410;2023-04-26T04:29:53;100382.84;;;2.86;100.00
32789;BME280;19141;48.980;8.410;2023-04-26T04:32:20;100387.19;;;2.76;100.00
32789;BME280;19141;48.980;8.410;2023-04-26T04:34:47;100385.50;;;2.75;100.00
32789;BME280;19141;48.980;8.410;2023-04-26T04:37:12;100388.38;;;2.72;100.00
32789;BME280;19141;48.980;8.410;2023-04-26T04:39:38;100388.38;;;2.72;100.00
32789;BME280;19141;48.980;8.410;2023-04-26T04:42:04;100388.00;;;2.65;100.00
32789;BME280;19141;48.980;8.410;2023-04-26T04:44:29;100394.59;;;2.71;100.00
32789;BME280;19141;48.980;8.410;2023-04-26T04:46:55;100402.25;;;2.74;100.00
32789;BME280;19141;48.980;8.410;2023-04-26T04:49:22;100402.00;;;2.77;100.00
32789;BME280;19141;48.980;8.410;2023-04-26T04:51:49;100398.28;;;2.80;100.00
32789;BME280;19141;48.980;8.410;2023-04-26T04:54:16;100400.81;;;2.81;100.00
32789;BME280;19141;48.980;8.410;2023-04-26T04:56:45;100408.59;;;2.83;100.00
32789;BME280;19141;48.980;8.410;2023-04-26T04:59:12;100410.88;;;2.87;100.00
32789;BME280;19141;48.980;8.410;2023-04-26T05:01:38;100410.13;;;2.85;100.00
32789;BME280;19141;48.980;8.410;2023-04-26T05:04:07;100411.09;;;2.84;100.00
32789;BME280;19141;48.980;8.410;2023-04-26T05:06:33;100410.97;;;2.86;100.00
32789;BME280;19141;48.980;8.410;2023-04-26T05:08:59;100415.03;;;2.90;100.00
32789;BME280;19141;48.980;8.410;2023-04-26T05:11:25;100416.25;;;2.97;100.00
32789;BME280;19141;48.980;8.410;2023-04-26T05:13:51;100425.44;;;3.14;100.00
32789;BME280;19141;48.980;8.410;2023-04-26T05:16:16;100419.94;;;3.17;100.00
32789;BME280;19141;48.980;8.410;2023-04-26T05:18:42;100426.50;;;3.22;100.00
32789;BME280;19141;48.980;8.410;2023-04-26T05:21:08;100426.03;;;3.29;100.00
32789;BME280;19141;48.980;8.410;2023-04-26T05:23:34;100427.56;;;3.42;100.00
32789;BME280;19141;48.980;8.410;2023-04-26T05:26:04;100426.31;;;3.58;100.00
32789;BME280;19141;48.980;8.410;2023-04-26T05:28:48;100426.63;;;3.75;100.00
32789;BME280;19141;48.980;8.410;2023-04-26T05:31:20;100433.75;;;3.85;100.00
32789;BME280;19141;48.980;8.410;2023-04-26T05:34:06;100438.88;;;3.97;100.00
32789;BME280;19141;48.980;8.410;2023-04-26T05:36:36;100436.88;;;4.11;100.00
32789;BME280;19141;48.980;8.410;2023-04-26T05:39:02;100437.69;;;4.22;100.00
32789;BME280;19141;48.980;8.410;2023-04-26T05:41:30;100425.13;;;4.35;100.00
32789;BME280;19141;48.980;8.410;2023-04-26T05:43:55;100431.88;;;4.49;100.00
32789;BME280;19141;48.980;8.410;2023-04-26T05:46:21;100429.97;;;4.51;100.00
32789;BME280;19141;48.980;8.410;2023-04-26T05:48:47;100430.00;;;4.61;100.00
32789;BME280;19141;48.980;8.410;2023-04-26T05:51:13;100428.13;;;4.73;100.00
32789;BME280;19141;48.980;8.410;2023-04-26T05:53:38;100441.13;;;4.85;100.00
32789;BME280;19141;48.980;8.410;2023-04-26T05:56:04;100450.63;;;4.98;100.00
32789;BME280;19141;48.980;8.410;2023-04-26T05:58:29;100444.00;;;5.03;100.00
32789;BME280;19141;48.980;8.410;2023-04-26T06:00:55;100441.75;;;5.08;100.00
32789;BME280;19141;48.980;8.410;2023-04-26T06:03:20;100449.34;;;5.23;100.00
32789;BME280;19141;48.980;8.410;2023-04-26T06:05:46;100454.66;;;5.32;100.00
32789;BME280;19141;48.980;8.410;2023-04-26T06:08:11;100451.91;;;5.43;100.00
32789;BME280;19141;48.980;8.410;2023-04-26T06:10:37;100459.84;;;5.53;100.00
32789;BME280;19141;48.980;8.410;2023-04-26T06:13:03;100461.13;;;5.59;100.00
32789;BME280;19141;48.980;8.410;2023-04-26T06:15:33;100463.91;;;5.67;100.00
32789;BME280;19141;48.980;8.410;2023-04-26T06:17:59;100468.09;;;5.79;100.00
32789;BME280;19141;48.980;8.410;2023-04-26T06:20:25;100468.53;;;5.84;100.00
32789;BME280;19141;48.980;8.410;2023-04-26T06:22:50;100470.41;;;5.93;100.00
32789;BME280;19141;48.980;8.410;2023-04-26T06:25:16;100468.44;;;6.05;100.00
32789;BME280;19141;48.980;8.410;2023-04-26T06:27:42;100471.94;;;6.15;100.00
32789;BME280;19141;48.980;8.410;2023-04-26T06:30:08;100455.63;;;6.30;100.00
32789;BME280;19141;48.980;8.410;2023-04-26T06:32:39;100460.50;;;6.34;100.00
32789;BME280;19141;48.980;8.410;2023-04-26T06:35:05;100457.03;;;6.34;100.00
32789;BME280;19141;48.980;8.410;2023-04-26T06:37:31;100451.84;;;6.51;100.00
32789;BME280;19141;48.980;8.410;2023-04-26T06:39:57;100456.72;;;6.56;100.00
32789;BME280;19141;48.980;8.410;2023-04-26T06:42:22;100454.06;;;6.66;100.00
32789;BME280;19141;48.980;8.410;2023-04-26T06:45:09;100457.09;;;6.71;100.00
32789;BME280;19141;48.980;8.410;2023-04-26T06:47:35;100456.13;;;6.72;100.00
32789;BME280;19141;48.980;8.410;2023-04-26T06:50:02;100454.59;;;6.79;100.00
32789;BME280;19141;48.980;8.410;2023-04-26T06:52:27;100456.19;;;6.90;100.00
32789;BME280;19141;48.980;8.410;2023-04-26T06:54:53;100460.50;;;6.91;98.48
32789;BME280;19141;48.980;8.410;2023-04-26T06:57:19;100456.09;;;6.91;96.45
32789;BME280;19141;48.980;8.410;2023-04-26T06:59:44;100454.38;;;7.00;97.79
32789;BME280;19141;48.980;8.410;2023-04-26T07:02:10;100451.97;;;7.06;96.79
32789;BME280;19141;48.980;8.410;2023-04-26T07:04:35;100441.78;;;7.12;94.51
32789;BME280;19141;48.980;8.410;2023-04-26T07:07:01;100441.72;;;7.21;94.04
32789;BME280;19141;48.980;8.410;2023-04-26T07:09:27;100437.25;;;7.22;93.93
32789;BME280;19141;48.980;8.410;2023-04-26T07:11:52;100435.16;;;7.25;93.53
32789;BME280;19141;48.980;8.410;2023-04-26T07:14:17;100435.25;;;7.33;99.08
32789;BME280;19141;48.980;8.410;2023-04-26T07:16:43;100436.88;;;7.44;97.79
32789;BME280;19141;48.980;8.410;2023-04-26T07:19:08;100438.47;;;7.55;95.20
32789;BME280;19141;48.980;8.410;2023-04-26T07:21:35;100437.59;;;7.64;95.04
32789;BME280;19141;48.980;8.410;2023-04-26T07:24:01;100431.44;;;7.64;93.97
32789;BME280;19141;48.980;8.410;2023-04-26T07:26:26;100441.00;;;7.74;92.31
32789;BME280;19141;48.980;8.410;2023-04-26T07:28:52;100434.94;;;7.82;92.53
32789;BME280;19141;48.980;8.410;2023-04-26T07:31:18;100437.91;;;7.97;93.62
32789;BME280;19141;48.980;8.410;2023-04-26T07:33:43;100438.97;;;8.04;91.78
32789;BME280;19141;48.980;8.410;2023-04-26T07:36:09;100441.41;;;8.15;90.36
32789;BME280;19141;48.980;8.410;2023-04-26T07:38:34;100439.19;;;8.28;90.22
32789;BME280;19141;48.980;8.410;2023-04-26T07:41:00;100440.25;;;8.18;88.47
32789;BME280;19141;48.980;8.410;2023-04-26T07:43:26;100438.47;;;8.26;88.55
32789;BME280;19141;48.980;8.410;2023-04-26T07:45:52;100440.53;;;8.32;85.41
32789;BME280;19141;48.980;8.410;2023-04-26T07:48:17;100439.78;;;8.40;84.99
32789;BME280;19141;48.980;8.410;2023-04-26T07:50:43;100439.94;;;8.38;81.66
32789;BME280;19141;48.980;8.410;2023-04-26T07:53:08;100441.97;;;8.45;83.58
32789;BME280;19141;48.980;8.410;2023-04-26T07:55:34;100432.22;;;8.71;83.92
32789;BME280;19141;48.980;8.410;2023-04-26T07:58:00;100439.88;;;8.74;81.01
32789;BME280;19141;48.980;8.410;2023-04-26T08:00:25;100439.25;;;8.80;85.24
32789;BME280;19141;48.980;8.410;2023-04-26T08:02:51;100431.31;;;8.88;82.21
32789;BME280;19141;48.980;8.410;2023-04-26T08:05:16;100435.84;;;8.96;82.52
32789;BME280;19141;48.980;8.410;2023-04-26T08:07:42;100432.75;;;9.09;80.87
32789;BME280;19141;48.980;8.410;2023-04-26T08:10:08;100436.16;;;9.27;81.08
32789;BME280;19141;48.980;8.410;2023-04-26T08:12:34;100437.38;;;9.41;78.51
32789;BME280;19141;48.980;8.410;2023-04-26T08:15:00;100430.06;;;9.43;74.87
32789;BME280;19141;48.980;8.410;2023-04-26T08:17:26;100427.59;;;9.49;72.48
32789;BME280;19141;48.980;8.410;2023-04-26T08:19:51;100431.75;;;9.52;69.23
32789;BME280;19141;48.980;8.410;2023-04-26T08:22:17;100427.59;;;9.49;67.50
32789;BME280;19141;48.980;8.410;2023-04-26T08:24:46;100433.97;;;9.73;68.07
32789;BME280;19141;48.980;8.410;2023-04-26T08:27:12;100443.97;;;9.87;64.94
32789;BME280;19141;48.980;8.410;2023-04-26T08:29:38;100435.97;;;9.87;67.42
32789;BME280;19141;48.980;8.410;2023-04-26T08:32:03;100438.00;;;10.10;64.14
32789;BME280;19141;48.980;8.410;2023-04-26T08:34:29;100439.00;;;10.09;66.06
32789;BME280;19141;48.980;8.410;2023-04-26T08:36:54;100440.00;;;10.07;59.95
32789;BME280;19141;48.980;8.410;2023-04-26T08:39:20;100432.06;;;10.24;58.11
32789;BME280;19141;48.980;8.410;2023-04-26T08:41:49;100427.06;;;10.37;60.38
32789;BME280;19141;48.980;8.410;2023-04-26T08:44:16;100429.06;;;10.43;57.39
32789;BME280;19141;48.980;8.410;2023-04-26T08:49:39;100422.28;;;10.96;55.26
32789;BME280;19141;48.980;8.410;2023-04-26T08:52:10;100421.66;;;10.86;54.03
32789;BME280;19141;48.980;8.410;2023-04-26T08:54:38;100413.91;;;11.07;54.46
32789;BME280;19141;48.980;8.410;2023-04-26T08:57:05;100415.88;;;11.22;56.36
32789;BME280;19141;48.980;8.410;2023-04-26T08:59:35;100416.63;;;11.38;55.47
32789;BME280;19141;48.980;8.410;2023-04-26T09:02:03;100420.56;;;11.51;55.29
32789;BME280;19141;48.980;8.410;2023-04-26T09:04:29;100417.13;;;11.34;53.11
32789;BME280;19141;48.980;8.410;2023-04-26T09:06:59;100412.72;;;11.49;54.64
32789;BME280;19141;48.980;8.410;2023-04-26T09:09:26;100402.00;;;11.26;53.29
32789;BME280;19141;48.980;8.410;2023-04-26T09:11:55;100407.41;;;11.49;56.42
32789;BME280;19141;48.980;8.410;2023-04-26T09:14:22;100406.72;;;11.78;53.98
32789;BME280;19141;48.980;8.410;2023-04-26T09:16:48;100408.88;;;11.52;53.75
32789;BME280;19141;48.980;8.410;2023-04-26T09:19:14;100412.75;;;11.72;63.64
32789;BME280;19141;48.980;8.410;2023-04-26T09:21:44;100407.53;;;11.79;55.76
32789;BME280;19141;48.980;8.410;2023-04-26T09:24:10;100412.44;;;12.21;51.75
32789;BME280;19141;48.980;8.410;2023-04-26T09:26:36;100408.59;;;12.38;50.52
32789;BME280;19141;48.980;8.410;2023-04-26T09:29:16;100406.28;;;12.20;50.67
32789;BME280;19141;48.980;8.410;2023-04-26T09:31:43;100403.47;;;12.52;55.32
32789;BME280;19141;48.980;8.410;2023-04-26T09:34:11;100396.41;;;12.73;51.70
32789;BME280;19141;48.980;8.410;2023-04-26T09:36:53;100385.03;;;13.16;50.42
32789;BME280;19141;48.980;8.410;2023-04-26T09:39:34;100395.66;;;13.09;50.07
32789;BME280;19141;48.980;8.410;2023-04-26T09:42:02;100393.25;;;13.14;48.19
32789;BME280;19141;48.980;8.410;2023-04-26T09:44:29;100394.00;;;13.38;46.79
32789;BME280;19141;48.980;8.410;2023-04-26T09:47:03;100393.16;;;14.16;46.31
32789;BME280;19141;48.980;8.410;2023-04-26T09:49:32;100396.88;;;14.15;44.34
32789;BME280;19141;48.980;8.410;2023-04-26T09:52:05;100391.66;;;14.35;44.47
32789;BME280;19141;48.980;8.410;2023-04-26T09:54:38;100376.78;;;14.32;42.14
32789;BME280;19141;48.980;8.410;2023-04-26T09:57:03;100389.81;;;14.35;43.60
32789;BME280;19141;48.980;8.410;2023-04-26T09:59:41;100393.88;;;14.81;42.89
32789;BME280;19141;48.980;8.410;2023-04-26T10:02:26;100396.44;;;14.61;44.31
32789;BME280;19141;48.980;8.410;2023-04-26T10:04:53;100384.91;;;14.67;45.09
32789;BME280;19141;48.980;8.410;2023-04-26T10:07:20;100388.53;;;14.87;43.31
32789;BME280;19141;48.980;8.410;2023-04-26T10:09:46;100384.78;;;14.26;42.08
32789;BME280;19141;48.980;8.410;2023-04-26T10:12:14;100383.25;;;14.66;41.75
32789;BME280;19141;48.980;8.410;2023-04-26T10:14:41;100379.72;;;14.93;41.14
32789;BME280;19141;48.980;8.410;2023-04-26T10:17:06;100364.28;;;15.02;40.12
32789;BME280;19141;48.980;8.410;2023-04-26T10:19:33;100369.00;;;15.00;39.29
32789;BME280;19141;48.980;8.410;2023-04-26T10:22:04;100368.34;;;15.39;38.97
32789;BME280;19141;48.980;8.410;2023-04-26T10:24:31;100370.88;;;15.61;38.24
32789;BME280;19141;48.980;8.410;2023-04-26T10:26:56;100370.03;;;15.54;38.21
32789;BME280;19141;48.980;8.410;2023-04-26T10:32:20;100362.03;;;14.43;40.08
32789;BME280;19141;48.980;8.410;2023-04-26T10:35:09;100369.41;;;14.34;42.57
32789;BME280;19141;48.980;8.410;2023-04-26T10:40:39;100361.72;;;14.53;41.49
32789;BME280;19141;48.980;8.410;2023-04-26T10:45:38;100366.09;;;14.95;39.29
32789;BME280;19141;48.980;8.410;2023-04-26T10:48:15;100354.41;;;14.68;40.51
32789;BME280;19141;48.980;8.410;2023-04-26T10:56:08;100348.72;;;14.50;40.02
32789;BME280;19141;48.980;8.410;2023-04-26T10:58:34;100344.91;;;14.72;39.69
32789;BME280;19141;48.980;8.410;2023-04-26T11:01:16;100347.19;;;15.16;39.67
32789;BME280;19141;48.980;8.410;2023-04-26T11:04:27;100345.94;;;15.73;38.49
32789;BME280;19141;48.980;8.410;2023-04-26T11:06:49;100344.94;;;16.21;37.93
32789;BME280;19141;48.980;8.410;2023-04-26T11:12:14;100325.19;;;16.87;35.93
32789;BME280;19141;48.980;8.410;2023-04-26T11:14:41;100315.16;;;15.89;37.83
32789;BME280;19141;48.980;8.410;2023-04-26T11:17:10;100316.00;;;15.09;40.61
32789;BME280;19141;48.980;8.410;2023-04-26T11:19:37;100318.88;;;15.88;39.62
32789;BME280;19141;48.980;8.410;2023-04-26T11:22:05;100314.28;;;15.56;39.54
32789;BME280;19141;48.980;8.410;2023-04-26T11:24:32;100305.66;;;15.73;41.68
32789;BME280;19141;48.980;8.410;2023-04-26T11:26:58;100302.97;;;16.00;44.47
32789;BME280;19141;48.980;8.410;2023-04-26T11:29:24;100307.66;;;16.58;40.23
32789;BME280;19141;48.980;8.410;2023-04-26T11:31:55;100292.81;;;16.28;38.47
32789;BME280;19141;48.980;8.410;2023-04-26T11:34:22;100294.19;;;16.77;38.64
32789;BME280;19141;48.980;8.410;2023-04-26T11:36:55;100289.13;;;16.03;38.90
32789;BME280;19141;48.980;8.410;2023-04-26T11:39:21;100285.91;;;16.72;37.94
32789;BME280;19141;48.980;8.410;2023-04-26T11:41:47;100294.16;;;16.84;38.16
32789;BME280;19141;48.980;8.410;2023-04-26T11:44:19;100293.53;;;16.69;35.99
32789;BME280;19141;48.980;8.410;2023-04-26T11:46:48;100290.41;;;17.30;36.37
32789;BME280;19141;48.980;8.410;2023-04-26T11:49:15;100291.78;;;17.01;35.84
32789;BME280;19141;48.980;8.410;2023-04-26T11:51:41;100284.09;;;17.49;37.17
32789;BME280;19141;48.980;8.410;2023-04-26T11:54:07;100274.97;;;16.54;35.05
32789;BME280;19141;48.980;8.410;2023-04-26T11:56:32;100283.75;;;17.32;36.38
32789;BME280;19141;48.980;8.410;2023-04-26T11:58:58;100282.50;;;17.67;36.28
32789;BME280;19141;48.980;8.410;2023-04-26T12:01:28;100283.41;;;17.60;39.15
32789;BME280;19141;48.980;8.410;2023-04-26T12:03:55;100293.22;;;17.48;36.50
32789;BME280;19141;48.980;8.410;2023-04-26T12:06:30;100292.06;;;17.62;36.02
32789;BME280;19141;48.980;8.410;2023-04-26T12:09:01;100293.84;;;17.44;39.95
32789;BME280;19141;48.980;8.410;2023-04-26T12:11:27;100288.06;;;17.08;37.18
32789;BME280;19141;48.980;8.410;2023-04-26T12:13:52;100276.19;;;17.23;39.38
32789;BME280;19141;48.980;8.410;2023-04-26T12:16:18;100276.06;;;17.43;37.22
32789;BME280;19141;48.980;8.410;2023-04-26T12:18:49;100285.34;;;18.03;37.13
32789;BME280;19141;48.980;8.410;2023-04-26T12:21:15;100275.38;;;18.04;36.42
32789;BME280;19141;48.980;8.410;2023-04-26T12:23:41;100276.88;;;17.43;37.06
32789;BME280;19141;48.980;8.410;2023-04-26T12:26:06;100275.50;;;17.59;39.53
32789;BME280;19141;48.980;8.410;2023-04-26T12:28:35;100272.84;;;16.89;35.76
32789;BME280;19141;48.980;8.410;2023-04-26T12:31:00;100271.13;;;15.97;37.42
32789;BME280;19141;48.980;8.410;2023-04-26T12:33:27;100270.06;;;16.38;39.09
32789;BME280;19141;48.980;8.410;2023-04-26T12:35:53;100260.09;;;16.51;38.53
32789;BME280;19141;48.980;8.410;2023-04-26T12:38:18;100268.34;;;16.63;37.90
32789;BME280;19141;48.980;8.410;2023-04-26T12:40:44;100262.03;;;16.96;37.51
32789;BME280;19141;48.980;8.410;2023-04-26T12:43:09;100263.19;;;17.45;37.52
32789;BME280;19141;48.980;8.410;2023-04-26T12:45:35;100267.34;;;17.72;37.05
32789;BME280;19141;48.980;8.410;2023-04-26T12:48:01;100264.78;;;18.09;37.17
32789;BME280;19141;48.980;8.410;2023-04-26T12:50:26;100258.31;;;17.60;34.19
32789;BME280;19141;48.980;8.410;2023-04-26T12:52:52;100267.19;;;18.17;36.86
32789;BME280;19141;48.980;8.410;2023-04-26T12:55:18;100269.25;;;18.77;36.12
32789;BME280;19141;48.980;8.410;2023-04-26T12:57:44;100267.47;;;17.84;33.27
32789;BME280;19141;48.980;8.410;2023-04-26T13:00:11;100263.63;;;18.60;36.43
32789;BME280;19141;48.980;8.410;2023-04-26T13:02:37;100258.78;;;18.07;36.11
32789;BME280;19141;48.980;8.410;2023-04-26T13:05:04;100250.50;;;18.82;35.42
32789;BME280;19141;48.980;8.410;2023-04-26T13:07:35;100266.94;;;19.70;33.35
32789;BME280;19141;48.980;8.410;2023-04-26T13:10:01;100261.41;;;19.65;31.55
32789;BME280;19141;48.980;8.410;2023-04-26T13:12:27;100269.63;;;19.82;33.99
32789;BME280;19141;48.980;8.410;2023-04-26T13:14:53;100262.97;;;19.13;31.01
32789;BME280;19141;48.980;8.410;2023-04-26T13:17:19;100252.53;;;18.50;32.44
32789;BME280;19141;48.980;8.410;2023-04-26T13:19:46;100250.16;;;20.15;31.75
32789;BME280;19141;48.980;8.410;2023-04-26T13:22:11;100248.66;;;20.71;31.64
32789;BME280;19141;48.980;8.410;2023-04-26T13:24:37;100255.94;;;20.82;31.84
32789;BME280;19141;48.980;8.410;2023-04-26T13:27:03;100259.59;;;21.95;30.07
32789;BME280;19141;48.980;8.410;2023-04-26T13:29:29;100249.75;;;21.27;31.04
32789;BME280;19141;48.980;8.410;2023-04-26T13:31:56;100246.94;;;21.34;31.86
32789;BME280;19141;48.980;8.410;2023-04-26T13:34:24;100252.13;;;21.69;31.08
32789;BME280;19141;48.980;8.410;2023-04-26T13:36:51;100251.63;;;20.98;30.64
32789;BME280;19141;48.980;8.410;2023-04-26T13:39:16;100250.50;;;19.95;30.78
32789;BME280;19141;48.980;8.410;2023-04-26T13:41:42;100244.88;;;19.43;31.93
32789;BME280;19141;48.980;8.410;2023-04-26T13:44:07;100240.00;;;18.18;33.92
32789;BME280;19141;48.980;8.410;2023-04-26T13:46:33;100237.63;;;18.29;36.45
32789;BME280;19141;48.980;8.410;2023-04-26T13:48:58;100238.41;;;17.36;33.71
32789;BME280;19141;48.980;8.410;2023-04-26T13:51:23;100240.22;;;17.42;36.00
32789;BME280;19141;48.980;8.410;2023-04-26T13:53:50;100246.56;;;17.23;38.56
32789;BME280;19141;48.980;8.410;2023-04-26T13:56:16;100243.19;;;17.27;38.37
32789;BME280;19141;48.980;8.410;2023-04-26T13:58:42;100243.47;;;17.51;36.47
32789;BME280;19141;48.980;8.410;2023-04-26T14:01:08;100233.72;;;16.87;36.87
32789;BME280;19141;48.980;8.410;2023-04-26T14:03:34;100230.28;;;16.60;41.41
32789;BME280;19141;48.980;8.410;2023-04-26T14:05:59;100223.47;;;17.08;35.54
32789;BME280;19141;48.980;8.410;2023-04-26T14:08:27;100234.13;;;15.26;37.19
32789;BME280;19141;48.980;8.410;2023-04-26T14:10:52;100228.53;;;15.21;38.70
32789;BME280;19141;48.980;8.410;2023-04-26T14:13:17;100234.09;;;15.13;38.88
32789;BME280;19141;48.980;8.410;2023-04-26T14:15:43;100233.13;;;14.73;39.40
32789;BME280;19141;48.980;8.410;2023-04-26T14:18:08;100232.00;;;14.95;38.90
32789;BME280;19141;48.980;8.410;2023-04-26T14:20:34;100227.47;;;15.09;40.25
32789;BME280;19141;48.980;8.410;2023-04-26T14:23:00;100230.38;;;15.01;38.77
32789;BME280;19141;48.980;8.410;2023-04-26T14:25:25;100236.63;;;15.47;39.24
32789;BME280;19141;48.980;8.410;2023-04-26T14:27:52;100230.19;;;15.15;39.47
32789;BME280;19141;48.980;8.410;2023-04-26T14:30:18;100235.44;;;14.76;39.61
32789;BME280;19141;48.980;8.410;2023-04-26T14:32:43;100245.97;;;14.84;39.82
32789;BME280;19141;48.980;8.410;2023-04-26T14:35:09;100241.66;;;14.83;40.26
32789;BME280;19141;48.980;8.410;2023-04-26T14:37:35;100234.16;;;14.72;40.59
32789;BME280;19141;48.980;8.410;2023-04-26T14:40:01;100234.31;;;14.57;39.46
32789;BME280;19141;48.980;8.410;2023-04-26T14:42:26;100229.25;;;14.06;39.44
32789;BME280;19141;48.980;8.410;2023-04-26T14:44:51;100230.69;;;14.02;40.28
32789;BME280;19141;48.980;8.410;2023-04-26T14:47:17;100228.28;;;14.13;39.66
32789;BME280;19141;48.980;8.410;2023-04-26T14:49:42;100225.44;;;14.15;40.20
32789;BME280;19141;48.980;8.410;2023-04-26T14:52:08;100222.19;;;13.64;40.91
32789;BME280;19141;48.980;8.410;2023-04-26T14:54:39;100213.47;;;14.18;42.26
32789;BME280;19141;48.980;8.410;2023-04-26T14:57:05;100215.94;;;14.54;41.78
32789;BME280;19141;48.980;8.410;2023-04-26T14:59:32;100205.97;;;14.82;41.14
32789;BME280;19141;48.980;8.410;2023-04-26T15:01:57;100218.53;;;14.75;39.04
32789;BME280;19141;48.980;8.410;2023-04-26T15:04:23;100219.63;;;14.94;39.04
32789;BME280;19141;48.980;8.410;2023-04-26T15:06:48;100216.31;;;14.99;39.40
32789;BME280;19141;48.980;8.410;2023-04-26T15:09:14;100216.13;;;15.07;39.27
32789;BME280;19141;48.980;8.410;2023-04-26T15:11:39;100215.41;;;14.72;38.99
32789;BME280;19141;48.980;8.410;2023-04-26T15:14:04;100212.50;;;14.73;38.89
32789;BME280;19141;48.980;8.410;2023-04-26T15:16:30;100224.63;;;14.56;39.74
32789;BME280;19141;48.980;8.410;2023-04-26T15:18:55;100212.56;;;14.86;39.18
32789;BME280;19141;48.980;8.410;2023-04-26T15:21:21;100208.72;;;14.48;39.44
32789;BME280;19141;48.980;8.410;2023-04-26T15:23:46;100211.50;;;14.33;40.06
32789;BME280;19141;48.980;8.410;2023-04-26T15:26:12;100207.53;;;14.63;39.79
32789;BME280;19141;48.980;8.410;2023-04-26T15:28:38;100205.91;;;14.69;40.03
32789;BME280;19141;48.980;8.410;2023-04-26T15:31:04;100206.81;;;14.89;39.32
32789;BME280;19141;48.980;8.410;2023-04-26T15:33:31;100202.25;;;14.83;39.71
32789;BME280;19141;48.980;8.410;2023-04-26T15:35:57;100212.91;;;14.63;39.55
32789;BME280;19141;48.980;8.410;2023-04-26T15:38:22;100205.78;;;14.90;38.32
32789;BME280;19141;48.980;8.410;2023-04-26T15:40:48;100214.41;;;14.86;38.60
32789;BME280;19141;48.980;8.410;2023-04-26T15:43:15;100201.41;;;14.76;38.59
32789;BME280;19141;48.980;8.410;2023-04-26T15:45:40;100205.38;;;14.87;38.40
32789;BME280;19141;48.980;8.410;2023-04-26T15:48:06;100194.75;;;14.65;38.78
32789;BME280;19141;48.980;8.410;2023-04-26T15:50:31;100204.22;;;14.55;38.95
32789;BME280;19141;48.980;8.410;2023-04-26T15:52:57;100196.97;;;14.49;39.48
32789;BME280;19141;48.980;8.410;2023-04-26T15:55:22;100204.47;;;14.32;39.71
32789;BME280;19141;48.980;8.410;2023-04-26T15:57:48;100201.38;;;14.28;39.73
32789;BME280;19141;48.980;8.410;2023-04-26T16:00:14;100200.69;;;14.48;39.60
32789;BME280;19141;48.980;8.410;2023-04-26T16:02:40;100198.88;;;14.61;39.67
32789;BME280;19141;48.980;8.410;2023-04-26T16:05:09;100192.44;;;14.49;38.70
32789;BME280;19141;48.980;8.410;2023-04-26T16:07:35;100192.47;;;14.56;39.33
32789;BME280;19141;48.980;8.410;2023-04-26T16:10:07;100191.03;;;14.60;39.89
32789;BME280;19141;48.980;8.410;2023-04-26T16:12:36;100186.06;;;14.57;39.20
32789;BME280;19141;48.980;8.410;2023-04-26T16:15:05;100201.09;;;14.51;39.98
32789;BME280;19141;48.980;8.410;2023-04-26T16:17:33;100195.13;;;14.49;40.09
32789;BME280;19141;48.980;8.410;2023-04-26T16:19:59;100186.88;;;14.51;39.87
32789;BME280;19141;48.980;8.410;2023-04-26T16:22:25;100185.94;;;14.30;41.29
32789;BME280;19141;48.980;8.410;2023-04-26T16:24:50;100179.88;;;14.56;39.34
32789;BME280;19141;48.980;8.410;2023-04-26T16:27:16;100183.63;;;14.62;40.19
32789;BME280;19141;48.980;8.410;2023-04-26T16:29:42;100184.69;;;14.68;39.85
32789;BME280;19141;48.980;8.410;2023-04-26T16:32:07;100182.34;;;14.51;39.21
32789;BME280;19141;48.980;8.410;2023-04-26T16:34:32;100177.38;;;14.48;40.91
32789;BME280;19141;48.980;8.410;2023-04-26T16:36:58;100179.34;;;14.33;41.06
32789;BME280;19141;48.980;8.410;2023-04-26T16:39:23;100187.22;;;14.41;41.36
32789;BME280;19141;48.980;8.410;2023-04-26T16:41:52;100188.44;;;14.38;41.50
32789;BME280;19141;48.980;8.410;2023-04-26T16:44:17;100192.75;;;14.39;40.64
32789;BME280;19141;48.980;8.410;2023-04-26T16:46:43;100192.19;;;14.44;41.30
32789;BME280;19141;48.980;8.410;2023-04-26T16:49:08;100187.19;;;14.34;40.90
32789;BME280;19141;48.980;8.410;2023-04-26T16:51:35;100194.09;;;14.50;40.15
32789;BME280;19141;48.980;8.410;2023-04-26T16:54:01;100183.94;;;14.46;40.11
32789;BME280;19141;48.980;8.410;2023-04-26T16:56:27;100178.56;;;14.46;40.96
32789;BME280;19141;48.980;8.410;2023-04-26T16:58:52;100186.34;;;14.34;41.01
32789;BME280;19141;48.980;8.410;2023-04-26T17:01:18;100193.31;;;14.22;41.66
32789;BME280;19141;48.980;8.410;2023-04-26T17:03:43;100189.03;;;14.34;41.37
32789;BME280;19141;48.980;8.410;2023-04-26T17:06:09;100193.78;;;14.38;41.33
32789;BME280;19141;48.980;8.410;2023-04-26T17:08:34;100197.00;;;14.21;40.67
32789;BME280;19141;48.980;8.410;2023-04-26T17:11:01;100190.34;;;14.10;42.06
32789;BME280;19141;48.980;8.410;2023-04-26T17:13:26;100192.44;;;14.15;41.61
32789;BME280;19141;48.980;8.410;2023-04-26T17:15:54;100182.22;;;13.90;40.98
32789;BME280;19141;48.980;8.410;2023-04-26T17:18:19;100185.78;;;14.04;40.78
32789;BME280;19141;48.980;8.410;2023-04-26T17:20:44;100192.34;;;14.01;41.05
32789;BME280;19141;48.980;8.410;2023-04-26T17:23:11;100196.59;;;13.82;43.41
32789;BME280;19141;48.980;8.410;2023-04-26T17:25:36;100201.97;;;13.89;42.60
32789;BME280;19141;48.980;8.410;2023-04-26T17:28:01;100189.00;;;13.93;41.62
32789;BME280;19141;48.980;8.410;2023-04-26T17:30:27;100188.19;;;13.92;41.71